THY5SM LTFM-EDDF
Flight info
| Callsign | THY5SM |
|---|---|
| Flight time | N/A |
| Altitude | 40000 |
| Route | VADEN1D/35L VADEN N618 BAKLO DCT XANEX DCT UTEKA DCT BABIT DCT GOTAR DCT ABRUK DCT SIMBA DCT AKINI T161 DEBHI DEBHI1B |
| Aircraft | A346/H-SDE2E3FGHIJ3J4J5M1RWXY/LB1D1 |
Departure
| Time | 2026-05-06 20:01 |
|---|---|
| Airport | İstanbul Airport (LTFM) |
Arrival
| Time | N/A |
|---|---|
| Airport | Frankfurt Main Airport (EDDF) |
| Time | Latitude | Longitude | Altitude | Speed | Heading |
|---|---|---|---|---|---|
| 2026-05-06 19:39 | 41.26783 | 28.73530 | 343 ft | 0 kts | 179° |
| 2026-05-06 19:50 | 41.26786 | 28.73530 | 343 ft | 2 kts | 181° |
| 2026-05-06 19:50 | 41.26802 | 28.73532 | 343 ft | 2 kts | 193° |
| 2026-05-06 19:51 | 41.26816 | 28.73538 | 343 ft | 2 kts | 203° |
| 2026-05-06 19:51 | 41.26829 | 28.73547 | 343 ft | 2 kts | 212° |
| 2026-05-06 19:51 | 41.26841 | 28.73559 | 343 ft | 2 kts | 223° |
| 2026-05-06 19:51 | 41.26851 | 28.73573 | 343 ft | 2 kts | 232° |
| 2026-05-06 19:52 | 41.26860 | 28.73589 | 343 ft | 2 kts | 242° |
| 2026-05-06 19:52 | 41.26866 | 28.73608 | 343 ft | 2 kts | 252° |
| 2026-05-06 19:52 | 41.26870 | 28.73627 | 343 ft | 2 kts | 261° |
| 2026-05-06 19:52 | 41.26871 | 28.73643 | 343 ft | 0 kts | 269° |
| 2026-05-06 19:53 | 41.26871 | 28.73646 | 343 ft | 0 kts | 270° |
| 2026-05-06 19:55 | 41.26871 | 28.73644 | 343 ft | 1 kts | 270° |
| 2026-05-06 19:55 | 41.26871 | 28.73616 | 343 ft | 5 kts | 270° |
| 2026-05-06 19:56 | 41.26870 | 28.73548 | 343 ft | 9 kts | 270° |
| 2026-05-06 19:56 | 41.26870 | 28.73446 | 343 ft | 12 kts | 269° |
| 2026-05-06 19:56 | 41.26868 | 28.73317 | 343 ft | 15 kts | 269° |
| 2026-05-06 19:56 | 41.26866 | 28.73171 | 343 ft | 14 kts | 269° |
| 2026-05-06 19:57 | 41.26865 | 28.73081 | 343 ft | 10 kts | 269° |
| 2026-05-06 19:57 | 41.26851 | 28.73014 | 343 ft | 6 kts | 216° |
| 2026-05-06 19:57 | 41.26792 | 28.72998 | 343 ft | 10 kts | 185° |
| 2026-05-06 19:57 | 41.26709 | 28.72996 | 343 ft | 13 kts | 180° |
| 2026-05-06 19:58 | 41.26606 | 28.72996 | 343 ft | 15 kts | 180° |
| 2026-05-06 19:58 | 41.26489 | 28.72997 | 343 ft | 17 kts | 179° |
| 2026-05-06 19:58 | 41.26360 | 28.73000 | 343 ft | 19 kts | 180° |
| 2026-05-06 19:58 | 41.26265 | 28.73000 | 343 ft | 10 kts | 179° |
| 2026-05-06 19:59 | 41.26228 | 28.72977 | 343 ft | 6 kts | 253° |
| 2026-05-06 19:59 | 41.26218 | 28.72905 | 343 ft | 9 kts | 266° |
| 2026-05-06 19:59 | 41.26216 | 28.72802 | 343 ft | 12 kts | 269° |
| 2026-05-06 19:59 | 41.26215 | 28.72674 | 343 ft | 15 kts | 269° |
| 2026-05-06 20:00 | 41.26215 | 28.72552 | 343 ft | 7 kts | 279° |
| 2026-05-06 20:00 | 41.26250 | 28.72524 | 343 ft | 7 kts | 353° |
| 2026-05-06 20:00 | 41.26317 | 28.72519 | 343 ft | 12 kts | 358° |
| 2026-05-06 20:00 | 41.26638 | 28.72512 | 343 ft | 85 kts | 0° |
| 2026-05-06 20:01 | 41.27475 | 28.72496 | 343 ft | 153 kts | 0° |
| 2026-05-06 20:01 | 41.28682 | 28.72460 | 613 ft | 183 kts | 2° |
| 2026-05-06 20:01 | 41.29953 | 28.72511 | 1263 ft | 187 kts | 6° |
| 2026-05-06 20:01 | 41.31258 | 28.72581 | 2078 ft | 189 kts | 4° |
| 2026-05-06 20:02 | 41.32608 | 28.72631 | 2717 ft | 202 kts | 4° |
| 2026-05-06 20:02 | 41.34060 | 28.72656 | 3224 ft | 218 kts | 2° |
| 2026-05-06 20:02 | 41.35648 | 28.72656 | 3693 ft | 237 kts | 2° |
| 2026-05-06 20:02 | 41.37340 | 28.72490 | 4226 ft | 256 kts | 345° |
| 2026-05-06 20:03 | 41.38871 | 28.71220 | 4794 ft | 275 kts | 311° |
| 2026-05-06 20:03 | 41.39923 | 28.69078 | 5662 ft | 280 kts | 301° |
| 2026-05-06 20:03 | 41.40905 | 28.66831 | 6553 ft | 283 kts | 301° |
| 2026-05-06 20:03 | 41.41893 | 28.64573 | 7412 ft | 288 kts | 302° |
| 2026-05-06 20:04 | 41.42913 | 28.62265 | 8279 ft | 292 kts | 302° |
| 2026-05-06 20:04 | 41.43956 | 28.59926 | 9144 ft | 296 kts | 302° |
| 2026-05-06 20:04 | 41.45017 | 28.57558 | 10002 ft | 301 kts | 302° |
| 2026-05-06 20:04 | 41.46097 | 28.55156 | 10724 ft | 310 kts | 303° |
| 2026-05-06 20:05 | 41.47234 | 28.52630 | 11215 ft | 328 kts | 303° |
| 2026-05-06 20:05 | 41.48442 | 28.49945 | 11683 ft | 347 kts | 303° |
| 2026-05-06 20:05 | 41.49709 | 28.47124 | 12139 ft | 366 kts | 302° |
| 2026-05-06 20:05 | 41.51040 | 28.44157 | 12795 ft | 377 kts | 302° |
| 2026-05-06 20:06 | 41.52395 | 28.41133 | 13649 ft | 382 kts | 302° |
| 2026-05-06 20:06 | 41.53749 | 28.38105 | 14490 ft | 387 kts | 302° |
| 2026-05-06 20:06 | 41.55143 | 28.34987 | 15294 ft | 392 kts | 301° |
| 2026-05-06 20:06 | 41.56542 | 28.31848 | 16064 ft | 397 kts | 301° |
| 2026-05-06 20:07 | 41.57916 | 28.28668 | 16822 ft | 402 kts | 298° |
| 2026-05-06 20:07 | 41.59213 | 28.25344 | 17579 ft | 406 kts | 296° |
| 2026-05-06 20:07 | 41.60496 | 28.21960 | 18491 ft | 405 kts | 297° |
| 2026-05-06 20:07 | 41.61746 | 28.18682 | 19615 ft | 398 kts | 296° |
| 2026-05-06 20:08 | 41.62977 | 28.15386 | 20361 ft | 401 kts | 296° |
| 2026-05-06 20:08 | 41.64222 | 28.12027 | 20964 ft | 408 kts | 296° |
| 2026-05-06 20:08 | 41.65494 | 28.08622 | 21607 ft | 412 kts | 296° |
| 2026-05-06 20:08 | 41.66804 | 28.05164 | 22264 ft | 416 kts | 298° |
| 2026-05-06 20:09 | 41.68239 | 28.01780 | 22902 ft | 420 kts | 301° |
| 2026-05-06 20:09 | 41.69805 | 27.98473 | 23520 ft | 424 kts | 303° |
| 2026-05-06 20:09 | 41.71428 | 27.95128 | 24129 ft | 428 kts | 303° |
| 2026-05-06 20:09 | 41.73067 | 27.91760 | 24724 ft | 432 kts | 303° |
| 2026-05-06 20:10 | 41.74709 | 27.88378 | 25303 ft | 436 kts | 303° |
| 2026-05-06 20:10 | 41.76354 | 27.84979 | 25866 ft | 440 kts | 303° |
| 2026-05-06 20:10 | 41.78023 | 27.81519 | 26420 ft | 443 kts | 303° |
| 2026-05-06 20:10 | 41.79699 | 27.78040 | 26963 ft | 447 kts | 303° |
| 2026-05-06 20:11 | 41.81179 | 27.74963 | 27424 ft | 450 kts | 303° |
| 2026-05-06 20:11 | 41.82781 | 27.71627 | 27906 ft | 454 kts | 303° |
| 2026-05-06 20:11 | 41.84499 | 27.68044 | 28410 ft | 457 kts | 303° |
| 2026-05-06 20:11 | 41.86223 | 27.64444 | 28902 ft | 461 kts | 303° |
| 2026-05-06 20:12 | 41.87942 | 27.60851 | 29379 ft | 464 kts | 303° |
| 2026-05-06 20:12 | 41.89694 | 27.57184 | 29849 ft | 467 kts | 303° |
| 2026-05-06 20:12 | 41.91449 | 27.53504 | 30306 ft | 471 kts | 303° |
| 2026-05-06 20:12 | 41.93194 | 27.49842 | 30823 ft | 472 kts | 303° |
| 2026-05-06 20:13 | 41.94969 | 27.46112 | 31483 ft | 470 kts | 303° |
| 2026-05-06 20:13 | 41.96710 | 27.42448 | 32133 ft | 467 kts | 303° |
| 2026-05-06 20:13 | 41.98438 | 27.38806 | 32737 ft | 466 kts | 303° |
| 2026-05-06 20:13 | 42.00173 | 27.35144 | 33309 ft | 465 kts | 303° |
| 2026-05-06 20:14 | 42.01909 | 27.31467 | 33863 ft | 464 kts | 302° |
| 2026-05-06 20:14 | 42.03629 | 27.27816 | 34402 ft | 462 kts | 302° |
| 2026-05-06 20:14 | 42.05371 | 27.24271 | 34916 ft | 461 kts | 305° |
| 2026-05-06 20:14 | 42.07263 | 27.20811 | 35422 ft | 460 kts | 308° |
| 2026-05-06 20:15 | 42.09306 | 27.17471 | 35904 ft | 459 kts | 311° |
| 2026-05-06 20:15 | 42.11401 | 27.14289 | 36349 ft | 458 kts | 312° |
| 2026-05-06 20:15 | 42.13530 | 27.11124 | 36756 ft | 458 kts | 312° |
| 2026-05-06 20:15 | 42.15648 | 27.07977 | 37122 ft | 458 kts | 312° |
| 2026-05-06 20:16 | 42.17733 | 27.04864 | 37459 ft | 458 kts | 312° |
| 2026-05-06 20:16 | 42.19919 | 27.01587 | 37794 ft | 458 kts | 312° |
| 2026-05-06 20:16 | 42.22027 | 26.98415 | 38110 ft | 458 kts | 312° |
| 2026-05-06 20:16 | 42.24163 | 26.95193 | 38403 ft | 458 kts | 311° |
| 2026-05-06 20:17 | 42.26262 | 26.92019 | 38644 ft | 460 kts | 311° |
| 2026-05-06 20:17 | 42.28391 | 26.88796 | 38861 ft | 461 kts | 311° |
| 2026-05-06 20:17 | 42.30527 | 26.85558 | 39073 ft | 463 kts | 311° |
| 2026-05-06 20:17 | 42.32652 | 26.82333 | 39281 ft | 464 kts | 311° |
| 2026-05-06 20:18 | 42.34818 | 26.79041 | 39487 ft | 465 kts | 311° |
| 2026-05-06 20:18 | 42.36961 | 26.75780 | 39681 ft | 466 kts | 311° |
| 2026-05-06 20:18 | 42.39090 | 26.72536 | 39861 ft | 467 kts | 311° |
| 2026-05-06 20:18 | 42.41254 | 26.69233 | 40004 ft | 469 kts | 311° |
| 2026-05-06 20:19 | 42.45612 | 26.62571 | 40019 ft | 470 kts | 311° |
| 2026-05-06 20:19 | 42.49944 | 26.55931 | 40022 ft | 470 kts | 311° |
| 2026-05-06 20:20 | 42.53978 | 26.48958 | 40024 ft | 470 kts | 305° |
| 2026-05-06 20:20 | 42.57444 | 26.41380 | 40024 ft | 470 kts | 299° |
| 2026-05-06 20:21 | 42.60541 | 26.33564 | 40024 ft | 470 kts | 297° |
| 2026-05-06 20:21 | 42.63550 | 26.25854 | 40024 ft | 470 kts | 298° |
| 2026-05-06 20:22 | 42.66616 | 26.18016 | 40024 ft | 470 kts | 298° |
| 2026-05-06 20:22 | 42.69696 | 26.10149 | 40024 ft | 470 kts | 298° |
| 2026-05-06 20:23 | 42.72743 | 26.02353 | 40024 ft | 470 kts | 298° |
| 2026-05-06 20:23 | 42.75815 | 25.94473 | 40024 ft | 470 kts | 298° |
| 2026-05-06 20:24 | 42.78863 | 25.86635 | 40024 ft | 470 kts | 298° |
| 2026-05-06 20:24 | 42.81927 | 25.78736 | 40024 ft | 470 kts | 298° |
| 2026-05-06 20:25 | 42.84977 | 25.70851 | 40023 ft | 470 kts | 298° |
| 2026-05-06 20:25 | 42.88009 | 25.62991 | 40023 ft | 470 kts | 298° |
| 2026-05-06 20:26 | 42.91047 | 25.55095 | 40023 ft | 470 kts | 298° |
| 2026-05-06 20:26 | 42.94091 | 25.47155 | 40023 ft | 470 kts | 298° |
| 2026-05-06 20:27 | 42.97107 | 25.39270 | 40023 ft | 470 kts | 298° |
| 2026-05-06 20:27 | 43.00123 | 25.31351 | 40023 ft | 470 kts | 297° |
| 2026-05-06 20:28 | 43.03117 | 25.23451 | 40024 ft | 470 kts | 297° |
| 2026-05-06 20:28 | 43.06123 | 25.15514 | 40024 ft | 470 kts | 297° |
| 2026-05-06 20:29 | 43.09142 | 25.07531 | 40024 ft | 470 kts | 297° |
| 2026-05-06 20:29 | 43.12145 | 24.99593 | 40023 ft | 470 kts | 297° |